ADDS METAR Data INFO
IDs: Format: Raw Decoded Include TAF

Data at: 0203 UTC 26 Apr 2017

METAR for:KBRO (Brownsville Intl, TX, US)
Text:KBRO 260153Z 17018G27KT 10SM OVC017 27/23 A2954 RMK AO2 PK WND 16027/0147 SLP001 T02670228
Temperature: 26.7°C ( 80°F)
Dewpoint: 22.8°C ( 73°F) [RH = 79%]
Pressure (altimeter):29.54 inches Hg (1000.4 mb) [Sea level pressure: 1000.1 mb]
Winds:from the S (170 degrees) at 21 MPH (18 knots; 9.3 m/s) gusting to 31 MPH (27 knots; 13.9 m/s)
Visibility:10 or more sm (16+ km)
Ceiling:1700 feet AGL
Clouds: overcast cloud deck at 1700 feet AGL


Page loaded:  02:03 UTC  |   07:03 PM Pacific  |   08:03 PM Mountain  |   09:03 PM Central  |   10:03 PM Eastern

 

ADVISORIES

FORECASTS

FORECASTS

OBSERVATIONS

USER TOOLS

ABOUT US